sensor_id;sensor_type;location;lat;lon;timestamp;P1;durP1;ratioP1;P2;durP2;ratioP2
20828;SDS011;10575;50.124;8.582;2024-03-02T00:01:40;14.32;;;7.55;;
20828;SDS011;10575;50.124;8.582;2024-03-02T00:04:06;14.10;;;8.43;;
20828;SDS011;10575;50.124;8.582;2024-03-02T00:06:32;13.40;;;8.38;;
20828;SDS011;10575;50.124;8.582;2024-03-02T00:08:58;13.85;;;8.68;;
20828;SDS011;10575;50.124;8.582;2024-03-02T00:11:24;14.93;;;8.32;;
20828;SDS011;10575;50.124;8.582;2024-03-02T00:13:52;15.68;;;8.63;;
20828;SDS011;10575;50.124;8.582;2024-03-02T00:16:18;12.93;;;8.13;;
20828;SDS011;10575;50.124;8.582;2024-03-02T00:18:43;16.27;;;9.25;;
20828;SDS011;10575;50.124;8.582;2024-03-02T00:21:09;17.15;;;9.70;;
20828;SDS011;10575;50.124;8.582;2024-03-02T00:23:35;17.58;;;10.43;;
20828;SDS011;10575;50.124;8.582;2024-03-02T00:26:01;14.85;;;9.07;;
20828;SDS011;10575;50.124;8.582;2024-03-02T00:28:27;16.00;;;9.18;;
20828;SDS011;10575;50.124;8.582;2024-03-02T00:38:46;17.40;;;10.02;;
20828;SDS011;10575;50.124;8.582;2024-03-02T00:41:19;15.23;;;9.18;;
20828;SDS011;10575;50.124;8.582;2024-03-02T00:44:00;18.38;;;10.10;;
20828;SDS011;10575;50.124;8.582;2024-03-02T00:46:31;16.17;;;9.85;;
20828;SDS011;10575;50.124;8.582;2024-03-02T00:49:00;17.52;;;10.13;;
20828;SDS011;10575;50.124;8.582;2024-03-02T00:51:28;21.02;;;9.70;;
20828;SDS011;10575;50.124;8.582;2024-03-02T00:53:57;18.55;;;10.27;;
20828;SDS011;10575;50.124;8.582;2024-03-02T00:56:24;18.48;;;9.85;;
20828;SDS011;10575;50.124;8.582;2024-03-02T01:04:01;17.05;;;9.27;;
20828;SDS011;10575;50.124;8.582;2024-03-02T01:06:26;16.58;;;9.90;;
20828;SDS011;10575;50.124;8.582;2024-03-02T01:08:52;19.35;;;10.63;;
20828;SDS011;10575;50.124;8.582;2024-03-02T01:11:18;15.52;;;9.73;;
20828;SDS011;10575;50.124;8.582;2024-03-02T01:13:46;17.13;;;10.07;;
20828;SDS011;10575;50.124;8.582;2024-03-02T01:16:13;16.23;;;9.95;;
20828;SDS011;10575;50.124;8.582;2024-03-02T01:18:38;17.98;;;10.38;;
20828;SDS011;10575;50.124;8.582;2024-03-02T02:05:06;17.30;;;10.52;;
20828;SDS011;10575;50.124;8.582;2024-03-02T02:07:32;18.73;;;9.95;;
20828;SDS011;10575;50.124;8.582;2024-03-02T02:09:59;24.13;;;11.38;;
20828;SDS011;10575;50.124;8.582;2024-03-02T02:12:26;21.17;;;10.80;;
20828;SDS011;10575;50.124;8.582;2024-03-02T02:14:52;19.27;;;10.00;;
20828;SDS011;10575;50.124;8.582;2024-03-02T02:17:17;16.85;;;9.82;;
20828;SDS011;10575;50.124;8.582;2024-03-02T02:19:43;20.17;;;11.05;;
20828;SDS011;10575;50.124;8.582;2024-03-02T02:22:09;19.90;;;10.65;;
20828;SDS011;10575;50.124;8.582;2024-03-02T02:24:35;19.15;;;10.80;;
20828;SDS011;10575;50.124;8.582;2024-03-02T02:27:04;19.45;;;11.20;;
20828;SDS011;10575;50.124;8.582;2024-03-02T02:29:30;15.93;;;9.93;;
20828;SDS011;10575;50.124;8.582;2024-03-02T02:31:55;15.95;;;9.15;;
20828;SDS011;10575;50.124;8.582;2024-03-02T02:34:21;17.20;;;9.68;;
20828;SDS011;10575;50.124;8.582;2024-03-02T02:36:46;21.05;;;11.15;;
20828;SDS011;10575;50.124;8.582;2024-03-02T02:39:13;21.67;;;11.93;;
20828;SDS011;10575;50.124;8.582;2024-03-02T02:41:40;18.75;;;10.98;;
20828;SDS011;10575;50.124;8.582;2024-03-02T02:44:06;18.70;;;11.15;;
20828;SDS011;10575;50.124;8.582;2024-03-02T02:46:34;19.83;;;10.80;;
20828;SDS011;10575;50.124;8.582;2024-03-02T02:48:59;21.90;;;11.27;;
20828;SDS011;10575;50.124;8.582;2024-03-02T02:51:25;20.73;;;11.48;;
20828;SDS011;10575;50.124;8.582;2024-03-02T02:53:51;23.10;;;10.48;;
20828;SDS011;10575;50.124;8.582;2024-03-02T02:56:16;22.20;;;12.25;;
20828;SDS011;10575;50.124;8.582;2024-03-02T02:58:42;25.60;;;13.88;;
20828;SDS011;10575;50.124;8.582;2024-03-02T03:01:07;22.88;;;12.48;;
20828;SDS011;10575;50.124;8.582;2024-03-02T03:03:33;20.65;;;11.70;;
20828;SDS011;10575;50.124;8.582;2024-03-02T03:05:59;25.67;;;12.50;;
20828;SDS011;10575;50.124;8.582;2024-03-02T03:08:24;18.60;;;10.95;;
20828;SDS011;10575;50.124;8.582;2024-03-02T03:10:50;21.33;;;12.02;;
20828;SDS011;10575;50.124;8.582;2024-03-02T03:13:15;28.90;;;13.65;;
20828;SDS011;10575;50.124;8.582;2024-03-02T03:15:41;24.67;;;12.75;;
20828;SDS011;10575;50.124;8.582;2024-03-02T03:18:06;21.50;;;12.00;;
20828;SDS011;10575;50.124;8.582;2024-03-02T03:20:32;22.88;;;11.43;;
20828;SDS011;10575;50.124;8.582;2024-03-02T03:22:58;25.42;;;12.90;;
20828;SDS011;10575;50.124;8.582;2024-03-02T03:25:24;27.10;;;13.27;;
20828;SDS011;10575;50.124;8.582;2024-03-02T03:27:50;29.10;;;14.45;;
20828;SDS011;10575;50.124;8.582;2024-03-02T03:30:19;24.08;;;13.27;;
20828;SDS011;10575;50.124;8.582;2024-03-02T03:32:44;25.52;;;14.35;;
20828;SDS011;10575;50.124;8.582;2024-03-02T03:35:12;25.52;;;13.23;;
20828;SDS011;10575;50.124;8.582;2024-03-02T03:37:39;21.65;;;12.70;;
20828;SDS011;10575;50.124;8.582;2024-03-02T03:40:05;26.00;;;12.75;;
20828;SDS011;10575;50.124;8.582;2024-03-02T03:42:34;23.27;;;12.80;;
20828;SDS011;10575;50.124;8.582;2024-03-02T03:45:00;24.08;;;13.20;;
20828;SDS011;10575;50.124;8.582;2024-03-02T03:47:28;25.60;;;13.68;;
20828;SDS011;10575;50.124;8.582;2024-03-02T03:49:55;22.30;;;13.38;;
20828;SDS011;10575;50.124;8.582;2024-03-02T03:52:21;26.67;;;13.77;;
20828;SDS011;10575;50.124;8.582;2024-03-02T03:54:46;30.00;;;14.10;;
20828;SDS011;10575;50.124;8.582;2024-03-02T03:57:12;29.88;;;14.95;;
20828;SDS011;10575;50.124;8.582;2024-03-02T03:59:37;28.08;;;14.07;;
20828;SDS011;10575;50.124;8.582;2024-03-02T04:02:03;26.92;;;14.57;;
20828;SDS011;10575;50.124;8.582;2024-03-02T04:04:29;27.92;;;14.57;;
20828;SDS011;10575;50.124;8.582;2024-03-02T04:06:55;25.95;;;14.65;;
20828;SDS011;10575;50.124;8.582;2024-03-02T04:09:20;27.63;;;14.38;;
20828;SDS011;10575;50.124;8.582;2024-03-02T04:11:46;28.55;;;14.50;;
20828;SDS011;10575;50.124;8.582;2024-03-02T04:14:11;28.58;;;14.98;;
20828;SDS011;10575;50.124;8.582;2024-03-02T04:16:37;31.33;;;16.33;;
20828;SDS011;10575;50.124;8.582;2024-03-02T04:19:03;33.90;;;17.10;;
20828;SDS011;10575;50.124;8.582;2024-03-02T04:21:29;41.67;;;18.75;;
20828;SDS011;10575;50.124;8.582;2024-03-02T04:23:55;38.25;;;18.95;;
20828;SDS011;10575;50.124;8.582;2024-03-02T04:26:24;42.55;;;19.40;;
20828;SDS011;10575;50.124;8.582;2024-03-02T04:28:53;34.80;;;17.77;;
20828;SDS011;10575;50.124;8.582;2024-03-02T04:31:19;33.10;;;18.05;;
20828;SDS011;10575;50.124;8.582;2024-03-02T04:33:44;36.30;;;18.13;;
20828;SDS011;10575;50.124;8.582;2024-03-02T04:36:10;34.08;;;17.70;;
20828;SDS011;10575;50.124;8.582;2024-03-02T04:38:36;33.22;;;17.20;;
20828;SDS011;10575;50.124;8.582;2024-03-02T04:41:02;36.95;;;18.25;;
20828;SDS011;10575;50.124;8.582;2024-03-02T04:43:28;32.78;;;18.08;;
20828;SDS011;10575;50.124;8.582;2024-03-02T04:45:53;37.13;;;19.23;;
20828;SDS011;10575;50.124;8.582;2024-03-02T04:48:19;32.63;;;18.05;;
20828;SDS011;10575;50.124;8.582;2024-03-02T04:50:44;34.67;;;18.58;;
20828;SDS011;10575;50.124;8.582;2024-03-02T04:53:10;32.80;;;17.23;;
20828;SDS011;10575;50.124;8.582;2024-03-02T04:55:36;33.92;;;17.23;;
20828;SDS011;10575;50.124;8.582;2024-03-02T04:58:04;34.38;;;19.02;;
20828;SDS011;10575;50.124;8.582;2024-03-02T05:00:31;37.08;;;18.20;;
20828;SDS011;10575;50.124;8.582;2024-03-02T05:02:56;35.83;;;17.73;;
20828;SDS011;10575;50.124;8.582;2024-03-02T05:05:22;34.50;;;18.27;;
20828;SDS011;10575;50.124;8.582;2024-03-02T05:07:47;32.75;;;17.27;;
20828;SDS011;10575;50.124;8.582;2024-03-02T05:10:13;32.03;;;17.00;;
20828;SDS011;10575;50.124;8.582;2024-03-02T05:12:39;34.47;;;17.30;;
20828;SDS011;10575;50.124;8.582;2024-03-02T05:15:07;38.50;;;18.98;;
20828;SDS011;10575;50.124;8.582;2024-03-02T05:17:35;36.00;;;19.02;;
20828;SDS011;10575;50.124;8.582;2024-03-02T05:20:00;37.85;;;19.45;;
20828;SDS011;10575;50.124;8.582;2024-03-02T05:22:26;40.97;;;19.38;;
20828;SDS011;10575;50.124;8.582;2024-03-02T05:24:52;40.03;;;18.27;;
20828;SDS011;10575;50.124;8.582;2024-03-02T05:27:17;40.22;;;18.27;;
20828;SDS011;10575;50.124;8.582;2024-03-02T05:29:43;37.85;;;19.33;;
20828;SDS011;10575;50.124;8.582;2024-03-02T05:32:08;37.38;;;18.42;;
20828;SDS011;10575;50.124;8.582;2024-03-02T05:34:34;36.25;;;18.88;;
20828;SDS011;10575;50.124;8.582;2024-03-02T05:37:00;39.95;;;18.73;;
20828;SDS011;10575;50.124;8.582;2024-03-02T05:39:26;43.72;;;20.75;;
20828;SDS011;10575;50.124;8.582;2024-03-02T05:41:51;40.35;;;19.75;;
20828;SDS011;10575;50.124;8.582;2024-03-02T05:44:17;48.50;;;21.80;;
20828;SDS011;10575;50.124;8.582;2024-03-02T05:46:43;45.78;;;21.48;;
20828;SDS011;10575;50.124;8.582;2024-03-02T05:49:09;45.78;;;22.23;;
20828;SDS011;10575;50.124;8.582;2024-03-02T05:51:35;48.53;;;22.50;;
20828;SDS011;10575;50.124;8.582;2024-03-02T05:54:00;43.67;;;22.73;;
20828;SDS011;10575;50.124;8.582;2024-03-02T05:56:26;42.65;;;21.10;;
20828;SDS011;10575;50.124;8.582;2024-03-02T05:58:52;49.92;;;23.20;;
20828;SDS011;10575;50.124;8.582;2024-03-02T06:01:36;52.92;;;24.08;;
20828;SDS011;10575;50.124;8.582;2024-03-02T06:04:01;51.85;;;22.73;;
20828;SDS011;10575;50.124;8.582;2024-03-02T06:06:27;55.95;;;24.10;;
20828;SDS011;10575;50.124;8.582;2024-03-02T06:08:52;53.67;;;24.20;;
20828;SDS011;10575;50.124;8.582;2024-03-02T06:11:21;49.55;;;23.85;;
20828;SDS011;10575;50.124;8.582;2024-03-02T06:13:47;46.70;;;23.85;;
20828;SDS011;10575;50.124;8.582;2024-03-02T06:16:12;49.10;;;23.52;;
20828;SDS011;10575;50.124;8.582;2024-03-02T06:18:38;51.80;;;24.42;;
20828;SDS011;10575;50.124;8.582;2024-03-02T06:21:04;48.22;;;23.15;;
20828;SDS011;10575;50.124;8.582;2024-03-02T06:23:29;45.75;;;22.33;;
20828;SDS011;10575;50.124;8.582;2024-03-02T06:25:55;46.90;;;22.23;;
20828;SDS011;10575;50.124;8.582;2024-03-02T06:28:20;41.13;;;20.95;;
20828;SDS011;10575;50.124;8.582;2024-03-02T06:30:46;44.53;;;22.27;;
20828;SDS011;10575;50.124;8.582;2024-03-02T06:33:11;45.20;;;20.70;;
20828;SDS011;10575;50.124;8.582;2024-03-02T06:35:37;38.28;;;20.42;;
20828;SDS011;10575;50.124;8.582;2024-03-02T06:38:03;41.47;;;21.92;;
20828;SDS011;10575;50.124;8.582;2024-03-02T06:40:28;39.15;;;19.88;;
20828;SDS011;10575;50.124;8.582;2024-03-02T06:42:54;35.08;;;18.67;;
20828;SDS011;10575;50.124;8.582;2024-03-02T06:45:19;35.50;;;19.75;;
20828;SDS011;10575;50.124;8.582;2024-03-02T06:47:45;37.95;;;18.73;;
20828;SDS011;10575;50.124;8.582;2024-03-02T06:50:11;35.08;;;18.13;;
20828;SDS011;10575;50.124;8.582;2024-03-02T06:52:36;35.88;;;19.48;;
20828;SDS011;10575;50.124;8.582;2024-03-02T06:55:02;33.08;;;18.42;;
20828;SDS011;10575;50.124;8.582;2024-03-02T06:57:49;29.85;;;16.67;;
20828;SDS011;10575;50.124;8.582;2024-03-02T07:00:17;38.25;;;18.75;;
20828;SDS011;10575;50.124;8.582;2024-03-02T07:02:46;34.78;;;18.40;;
20828;SDS011;10575;50.124;8.582;2024-03-02T07:05:11;41.85;;;19.83;;
20828;SDS011;10575;50.124;8.582;2024-03-02T07:12:51;35.05;;;18.67;;
20828;SDS011;10575;50.124;8.582;2024-03-02T07:15:16;33.55;;;17.75;;
20828;SDS011;10575;50.124;8.582;2024-03-02T07:17:51;36.88;;;19.42;;
20828;SDS011;10575;50.124;8.582;2024-03-02T07:20:17;38.78;;;20.02;;
20828;SDS011;10575;50.124;8.582;2024-03-02T07:23:03;34.53;;;18.48;;
20828;SDS011;10575;50.124;8.582;2024-03-02T07:25:54;36.17;;;18.75;;
20828;SDS011;10575;50.124;8.582;2024-03-02T07:31:03;38.60;;;20.20;;
20828;SDS011;10575;50.124;8.582;2024-03-02T07:33:33;37.67;;;19.23;;
20828;SDS011;10575;50.124;8.582;2024-03-02T07:36:20;39.08;;;19.50;;
20828;SDS011;10575;50.124;8.582;2024-03-02T07:38:55;44.13;;;20.48;;
20828;SDS011;10575;50.124;8.582;2024-03-02T07:41:27;39.25;;;19.60;;
20828;SDS011;10575;50.124;8.582;2024-03-02T07:43:54;38.75;;;19.88;;
20828;SDS011;10575;50.124;8.582;2024-03-02T07:46:28;42.15;;;21.00;;
20828;SDS011;10575;50.124;8.582;2024-03-02T07:48:53;37.13;;;18.98;;
20828;SDS011;10575;50.124;8.582;2024-03-02T07:51:19;32.80;;;17.77;;
20828;SDS011;10575;50.124;8.582;2024-03-02T07:53:45;26.75;;;15.18;;
20828;SDS011;10575;50.124;8.582;2024-03-02T08:09:03;22.27;;;14.30;;
20828;SDS011;10575;50.124;8.582;2024-03-02T08:11:34;25.90;;;15.15;;
20828;SDS011;10575;50.124;8.582;2024-03-02T08:13:59;22.45;;;14.45;;
20828;SDS011;10575;50.124;8.582;2024-03-02T08:16:25;22.83;;;14.00;;
20828;SDS011;10575;50.124;8.582;2024-03-02T08:18:51;25.90;;;14.68;;
20828;SDS011;10575;50.124;8.582;2024-03-02T08:21:17;25.45;;;13.55;;
20828;SDS011;10575;50.124;8.582;2024-03-02T08:23:43;23.13;;;14.75;;
20828;SDS011;10575;50.124;8.582;2024-03-02T08:26:09;24.27;;;13.88;;
20828;SDS011;10575;50.124;8.582;2024-03-02T08:28:35;23.00;;;14.10;;
20828;SDS011;10575;50.124;8.582;2024-03-02T08:31:05;22.13;;;13.90;;
20828;SDS011;10575;50.124;8.582;2024-03-02T08:33:31;24.98;;;15.30;;
20828;SDS011;10575;50.124;8.582;2024-03-02T08:35:57;24.52;;;15.30;;
20828;SDS011;10575;50.124;8.582;2024-03-02T08:38:23;26.45;;;15.52;;
20828;SDS011;10575;50.124;8.582;2024-03-02T08:40:49;27.58;;;14.60;;
20828;SDS011;10575;50.124;8.582;2024-03-02T08:43:15;27.17;;;15.82;;
20828;SDS011;10575;50.124;8.582;2024-03-02T08:45:40;27.00;;;15.57;;
20828;SDS011;10575;50.124;8.582;2024-03-02T08:48:09;26.20;;;15.98;;
20828;SDS011;10575;50.124;8.582;2024-03-02T08:50:35;26.45;;;15.27;;
20828;SDS011;10575;50.124;8.582;2024-03-02T08:53:02;28.63;;;15.77;;
20828;SDS011;10575;50.124;8.582;2024-03-02T08:55:28;29.77;;;15.82;;
20828;SDS011;10575;50.124;8.582;2024-03-02T08:57:54;27.45;;;16.25;;
20828;SDS011;10575;50.124;8.582;2024-03-02T09:00:20;28.48;;;16.58;;
20828;SDS011;10575;50.124;8.582;2024-03-02T09:02:46;26.88;;;16.45;;
20828;SDS011;10575;50.124;8.582;2024-03-02T09:05:11;27.52;;;15.88;;
20828;SDS011;10575;50.124;8.582;2024-03-02T09:07:37;30.85;;;17.70;;
20828;SDS011;10575;50.124;8.582;2024-03-02T09:10:03;29.17;;;16.98;;
20828;SDS011;10575;50.124;8.582;2024-03-02T09:12:30;31.58;;;15.70;;
20828;SDS011;10575;50.124;8.582;2024-03-02T09:14:55;27.33;;;15.35;;
20828;SDS011;10575;50.124;8.582;2024-03-02T09:17:22;26.15;;;15.45;;
20828;SDS011;10575;50.124;8.582;2024-03-02T09:19:48;25.10;;;15.15;;
20828;SDS011;10575;50.124;8.582;2024-03-02T09:22:13;25.75;;;14.88;;
20828;SDS011;10575;50.124;8.582;2024-03-02T09:24:39;28.30;;;15.63;;
20828;SDS011;10575;50.124;8.582;2024-03-02T09:27:04;24.30;;;13.95;;
20828;SDS011;10575;50.124;8.582;2024-03-02T09:29:30;27.15;;;15.23;;
20828;SDS011;10575;50.124;8.582;2024-03-02T09:31:56;23.77;;;15.10;;
20828;SDS011;10575;50.124;8.582;2024-03-02T09:34:21;24.67;;;14.18;;
20828;SDS011;10575;50.124;8.582;2024-03-02T09:36:47;22.27;;;13.93;;
20828;SDS011;10575;50.124;8.582;2024-03-02T09:39:13;22.05;;;13.25;;
20828;SDS011;10575;50.124;8.582;2024-03-02T09:41:39;23.65;;;13.73;;
20828;SDS011;10575;50.124;8.582;2024-03-02T09:44:05;20.88;;;13.00;;
20828;SDS011;10575;50.124;8.582;2024-03-02T09:46:31;23.92;;;14.68;;
20828;SDS011;10575;50.124;8.582;2024-03-02T09:48:57;21.45;;;13.05;;
20828;SDS011;10575;50.124;8.582;2024-03-02T09:51:22;23.80;;;13.93;;
20828;SDS011;10575;50.124;8.582;2024-03-02T09:53:48;20.25;;;12.68;;
20828;SDS011;10575;50.124;8.582;2024-03-02T09:56:14;23.15;;;13.57;;
20828;SDS011;10575;50.124;8.582;2024-03-02T09:58:46;21.48;;;12.55;;
20828;SDS011;10575;50.124;8.582;2024-03-02T10:01:12;19.83;;;13.32;;
20828;SDS011;10575;50.124;8.582;2024-03-02T10:03:37;21.65;;;12.73;;
20828;SDS011;10575;50.124;8.582;2024-03-02T10:06:20;18.77;;;12.55;;
20828;SDS011;10575;50.124;8.582;2024-03-02T10:08:45;21.25;;;13.00;;
20828;SDS011;10575;50.124;8.582;2024-03-02T10:11:23;19.95;;;12.93;;
20828;SDS011;10575;50.124;8.582;2024-03-02T10:13:50;21.38;;;12.98;;
20828;SDS011;10575;50.124;8.582;2024-03-02T10:16:16;18.75;;;12.95;;
20828;SDS011;10575;50.124;8.582;2024-03-02T10:18:42;16.08;;;10.65;;
20828;SDS011;10575;50.124;8.582;2024-03-02T10:21:13;19.65;;;11.90;;
20828;SDS011;10575;50.124;8.582;2024-03-02T10:23:39;17.83;;;11.82;;
20828;SDS011;10575;50.124;8.582;2024-03-02T10:26:13;18.33;;;10.00;;
20828;SDS011;10575;50.124;8.582;2024-03-02T10:28:47;22.90;;;11.50;;
20828;SDS011;10575;50.124;8.582;2024-03-02T10:31:13;16.65;;;10.90;;
20828;SDS011;10575;50.124;8.582;2024-03-02T10:33:39;15.27;;;10.32;;
20828;SDS011;10575;50.124;8.582;2024-03-02T10:36:05;17.65;;;10.93;;
20828;SDS011;10575;50.124;8.582;2024-03-02T10:38:31;18.52;;;10.80;;
20828;SDS011;10575;50.124;8.582;2024-03-02T10:40:57;16.05;;;10.75;;
20828;SDS011;10575;50.124;8.582;2024-03-02T10:43:24;16.55;;;10.43;;
20828;SDS011;10575;50.124;8.582;2024-03-02T10:45:51;17.45;;;10.55;;
20828;SDS011;10575;50.124;8.582;2024-03-02T10:48:19;13.65;;;9.82;;
20828;SDS011;10575;50.124;8.582;2024-03-02T10:50:46;16.75;;;10.90;;
20828;SDS011;10575;50.124;8.582;2024-03-02T10:53:11;19.27;;;11.00;;
20828;SDS011;10575;50.124;8.582;2024-03-02T10:55:37;16.88;;;9.80;;
20828;SDS011;10575;50.124;8.582;2024-03-02T10:58:04;15.05;;;9.77;;
20828;SDS011;10575;50.124;8.582;2024-03-02T11:00:33;17.27;;;10.20;;
20828;SDS011;10575;50.124;8.582;2024-03-02T11:03:06;16.10;;;10.40;;
20828;SDS011;10575;50.124;8.582;2024-03-02T11:05:36;18.13;;;11.13;;
20828;SDS011;10575;50.124;8.582;2024-03-02T11:08:07;17.88;;;10.98;;
20828;SDS011;10575;50.124;8.582;2024-03-02T11:10:34;18.35;;;10.57;;
20828;SDS011;10575;50.124;8.582;2024-03-02T11:13:05;14.98;;;10.32;;
20828;SDS011;10575;50.124;8.582;2024-03-02T11:15:34;18.00;;;11.57;;
20828;SDS011;10575;50.124;8.582;2024-03-02T11:18:03;19.58;;;11.05;;
20828;SDS011;10575;50.124;8.582;2024-03-02T11:20:33;17.25;;;11.55;;
20828;SDS011;10575;50.124;8.582;2024-03-02T11:23:09;14.90;;;9.63;;
20828;SDS011;10575;50.124;8.582;2024-03-02T11:25:35;19.38;;;11.30;;
20828;SDS011;10575;50.124;8.582;2024-03-02T11:33:08;16.63;;;10.18;;
20828;SDS011;10575;50.124;8.582;2024-03-02T11:35:41;18.00;;;10.07;;
20828;SDS011;10575;50.124;8.582;2024-03-02T11:38:10;14.85;;;9.90;;
20828;SDS011;10575;50.124;8.582;2024-03-02T11:40:36;17.10;;;10.45;;
20828;SDS011;10575;50.124;8.582;2024-03-02T11:43:04;15.73;;;10.02;;
20828;SDS011;10575;50.124;8.582;2024-03-02T11:45:31;16.13;;;9.63;;
20828;SDS011;10575;50.124;8.582;2024-03-02T11:47:58;17.80;;;10.38;;
20828;SDS011;10575;50.124;8.582;2024-03-02T11:50:30;16.45;;;10.48;;
20828;SDS011;10575;50.124;8.582;2024-03-02T11:52:58;14.50;;;9.35;;
20828;SDS011;10575;50.124;8.582;2024-03-02T11:55:25;14.05;;;8.50;;
20828;SDS011;10575;50.124;8.582;2024-03-02T11:57:54;16.52;;;9.77;;
20828;SDS011;10575;50.124;8.582;2024-03-02T12:00:20;18.08;;;8.73;;
20828;SDS011;10575;50.124;8.582;2024-03-02T12:02:47;14.15;;;9.52;;
20828;SDS011;10575;50.124;8.582;2024-03-02T12:05:24;18.27;;;9.13;;
20828;SDS011;10575;50.124;8.582;2024-03-02T12:07:55;15.70;;;9.23;;
20828;SDS011;10575;50.124;8.582;2024-03-02T12:10:27;19.63;;;9.48;;
20828;SDS011;10575;50.124;8.582;2024-03-02T12:12:58;14.00;;;9.02;;
20828;SDS011;10575;50.124;8.582;2024-03-02T12:15:28;12.95;;;8.50;;
20828;SDS011;10575;50.124;8.582;2024-03-02T12:17:56;12.95;;;8.18;;
20828;SDS011;10575;50.124;8.582;2024-03-02T12:20:23;12.02;;;7.25;;
20828;SDS011;10575;50.124;8.582;2024-03-02T12:22:52;14.60;;;8.95;;
20828;SDS011;10575;50.124;8.582;2024-03-02T12:25:22;13.43;;;8.75;;
20828;SDS011;10575;50.124;8.582;2024-03-02T12:27:49;16.98;;;8.88;;
20828;SDS011;10575;50.124;8.582;2024-03-02T12:30:22;17.15;;;11.00;;
20828;SDS011;10575;50.124;8.582;2024-03-02T12:32:48;15.57;;;9.00;;
20828;SDS011;10575;50.124;8.582;2024-03-02T12:35:14;13.40;;;8.52;;
20828;SDS011;10575;50.124;8.582;2024-03-02T12:37:50;13.80;;;8.65;;
20828;SDS011;10575;50.124;8.582;2024-03-02T12:40:18;16.15;;;9.77;;
20828;SDS011;10575;50.124;8.582;2024-03-02T12:42:45;14.98;;;9.40;;
20828;SDS011;10575;50.124;8.582;2024-03-02T12:45:11;13.73;;;8.88;;
20828;SDS011;10575;50.124;8.582;2024-03-02T12:47:39;14.07;;;8.63;;
20828;SDS011;10575;50.124;8.582;2024-03-02T12:50:06;14.25;;;8.82;;
20828;SDS011;10575;50.124;8.582;2024-03-02T12:52:32;12.90;;;8.27;;
20828;SDS011;10575;50.124;8.582;2024-03-02T12:54:59;12.60;;;8.10;;
20828;SDS011;10575;50.124;8.582;2024-03-02T12:57:26;13.55;;;8.45;;
20828;SDS011;10575;50.124;8.582;2024-03-02T12:59:52;13.18;;;7.63;;
20828;SDS011;10575;50.124;8.582;2024-03-02T13:02:30;13.38;;;7.75;;
20828;SDS011;10575;50.124;8.582;2024-03-02T13:04:57;12.27;;;7.53;;
20828;SDS011;10575;50.124;8.582;2024-03-02T13:07:24;10.20;;;6.53;;
20828;SDS011;10575;50.124;8.582;2024-03-02T13:09:50;13.07;;;8.32;;
20828;SDS011;10575;50.124;8.582;2024-03-02T13:12:17;16.85;;;8.38;;
20828;SDS011;10575;50.124;8.582;2024-03-02T13:14:43;13.43;;;8.32;;
20828;SDS011;10575;50.124;8.582;2024-03-02T13:17:09;11.07;;;7.90;;
20828;SDS011;10575;50.124;8.582;2024-03-02T13:19:35;13.35;;;8.10;;
20828;SDS011;10575;50.124;8.582;2024-03-02T13:22:01;11.75;;;7.47;;
20828;SDS011;10575;50.124;8.582;2024-03-02T13:24:30;11.57;;;7.55;;
20828;SDS011;10575;50.124;8.582;2024-03-02T13:26:56;11.95;;;7.40;;
20828;SDS011;10575;50.124;8.582;2024-03-02T13:29:23;13.15;;;7.78;;
20828;SDS011;10575;50.124;8.582;2024-03-02T13:31:49;14.52;;;8.90;;
20828;SDS011;10575;50.124;8.582;2024-03-02T13:34:15;12.88;;;7.45;;
20828;SDS011;10575;50.124;8.582;2024-03-02T13:36:40;11.07;;;6.35;;
20828;SDS011;10575;50.124;8.582;2024-03-02T13:39:06;10.07;;;6.25;;
20828;SDS011;10575;50.124;8.582;2024-03-02T13:41:34;9.80;;;6.18;;
20828;SDS011;10575;50.124;8.582;2024-03-02T13:44:00;10.90;;;6.70;;
20828;SDS011;10575;50.124;8.582;2024-03-02T13:46:26;10.30;;;6.68;;
20828;SDS011;10575;50.124;8.582;2024-03-02T13:48:54;9.73;;;6.65;;
20828;SDS011;10575;50.124;8.582;2024-03-02T13:51:21;12.48;;;6.05;;
20828;SDS011;10575;50.124;8.582;2024-03-02T13:53:46;10.27;;;6.47;;
20828;SDS011;10575;50.124;8.582;2024-03-02T13:56:12;11.15;;;6.38;;
20828;SDS011;10575;50.124;8.582;2024-03-02T13:58:40;10.57;;;6.70;;
20828;SDS011;10575;50.124;8.582;2024-03-02T17:44:49;8.48;;;5.35;;
20828;SDS011;10575;50.124;8.582;2024-03-02T17:47:15;9.80;;;5.35;;
20828;SDS011;10575;50.124;8.582;2024-03-02T17:49:40;9.70;;;5.65;;
20828;SDS011;10575;50.124;8.582;2024-03-02T17:52:06;17.98;;;9.23;;
20828;SDS011;10575;50.124;8.582;2024-03-02T17:54:31;16.50;;;8.27;;
20828;SDS011;10575;50.124;8.582;2024-03-02T17:57:00;10.63;;;6.78;;
20828;SDS011;10575;50.124;8.582;2024-03-02T17:59:25;10.55;;;5.70;;
20828;SDS011;10575;50.124;8.582;2024-03-02T18:01:52;13.70;;;5.97;;
20828;SDS011;10575;50.124;8.582;2024-03-02T18:04:17;11.77;;;6.15;;
20828;SDS011;10575;50.124;8.582;2024-03-02T18:06:42;10.35;;;6.68;;
20828;SDS011;10575;50.124;8.582;2024-03-02T18:09:08;11.82;;;8.23;;
20828;SDS011;10575;50.124;8.582;2024-03-02T18:11:33;11.43;;;6.70;;
20828;SDS011;10575;50.124;8.582;2024-03-02T18:13:59;11.80;;;6.28;;
20828;SDS011;10575;50.124;8.582;2024-03-02T18:16:24;11.90;;;6.10;;
20828;SDS011;10575;50.124;8.582;2024-03-02T18:18:50;14.30;;;7.93;;
20828;SDS011;10575;50.124;8.582;2024-03-02T18:21:15;15.40;;;6.45;;
20828;SDS011;10575;50.124;8.582;2024-03-02T18:23:42;11.07;;;6.13;;
20828;SDS011;10575;50.124;8.582;2024-03-02T18:26:07;13.65;;;6.53;;
20828;SDS011;10575;50.124;8.582;2024-03-02T18:28:35;11.70;;;6.85;;
20828;SDS011;10575;50.124;8.582;2024-03-02T18:31:00;11.40;;;7.07;;
20828;SDS011;10575;50.124;8.582;2024-03-02T18:33:26;13.20;;;7.05;;
20828;SDS011;10575;50.124;8.582;2024-03-02T18:35:52;15.13;;;8.57;;
20828;SDS011;10575;50.124;8.582;2024-03-02T18:38:17;12.40;;;7.25;;
20828;SDS011;10575;50.124;8.582;2024-03-02T18:40:43;14.90;;;7.03;;
20828;SDS011;10575;50.124;8.582;2024-03-02T18:43:12;13.48;;;7.40;;
20828;SDS011;10575;50.124;8.582;2024-03-02T18:45:38;13.23;;;7.60;;
20828;SDS011;10575;50.124;8.582;2024-03-02T18:48:04;14.25;;;7.88;;
20828;SDS011;10575;50.124;8.582;2024-03-02T18:50:32;11.95;;;7.30;;
20828;SDS011;10575;50.124;8.582;2024-03-02T18:52:58;11.35;;;6.90;;
20828;SDS011;10575;50.124;8.582;2024-03-02T18:55:23;11.02;;;6.90;;
20828;SDS011;10575;50.124;8.582;2024-03-02T18:57:49;12.20;;;7.20;;
20828;SDS011;10575;50.124;8.582;2024-03-02T19:00:14;12.35;;;6.85;;
20828;SDS011;10575;50.124;8.582;2024-03-02T19:02:40;12.52;;;7.32;;
20828;SDS011;10575;50.124;8.582;2024-03-02T19:05:06;11.27;;;6.60;;
20828;SDS011;10575;50.124;8.582;2024-03-02T19:07:32;11.95;;;7.22;;
20828;SDS011;10575;50.124;8.582;2024-03-02T19:09:58;13.70;;;6.68;;
20828;SDS011;10575;50.124;8.582;2024-03-02T19:12:23;13.50;;;6.32;;
20828;SDS011;10575;50.124;8.582;2024-03-02T19:14:49;12.60;;;6.38;;
20828;SDS011;10575;50.124;8.582;2024-03-02T19:17:15;11.90;;;6.63;;
20828;SDS011;10575;50.124;8.582;2024-03-02T19:19:41;11.43;;;6.63;;
20828;SDS011;10575;50.124;8.582;2024-03-02T19:22:06;11.60;;;6.28;;
20828;SDS011;10575;50.124;8.582;2024-03-02T19:24:35;10.20;;;7.00;;
20828;SDS011;10575;50.124;8.582;2024-03-02T19:27:03;10.70;;;6.60;;
20828;SDS011;10575;50.124;8.582;2024-03-02T19:29:29;18.00;;;6.03;;
20828;SDS011;10575;50.124;8.582;2024-03-02T19:31:55;10.35;;;6.55;;